Time;durP1;ratioP1;P1;durP2;ratioP2;P2;SDS_P1;SDS_P2;PMS_P1;PMS_P2;Temp;Humidity;BMP_temperature;BMP_pressure;BME280_temperature;BME280_humidity;BME280_pressure;Samples;Min_cycle;Max_cycle;Signal;HPM_P1;HPM_P2
2022/11/22 00:02:25;;;;;;;45.95;24.98;;;4.00;99.90;;;;;;5052545;28;20045;-47
2022/11/22 00:04:50;;;;;;;41.72;23.15;;;4.00;99.90;;;;;;5053626;28;20049;-45
2022/11/22 00:07:16;;;;;;;34.95;19.13;;;4.00;99.90;;;;;;5053381;28;20132;-47
2022/11/22 00:09:42;;;;;;;37.78;21.40;;;3.90;99.90;;;;;;5054023;28;20083;-44
2022/11/22 00:12:08;;;;;;;36.42;22.85;;;4.00;99.90;;;;;;5052370;28;20052;-47
2022/11/22 00:14:33;;;;;;;37.33;21.60;;;4.00;99.90;;;;;;5055468;28;20129;-44
2022/11/22 00:16:59;;;;;;;36.75;20.35;;;4.00;99.90;;;;;;5056311;28;20155;-45
2022/11/22 00:19:25;;;;;;;40.60;22.52;;;3.90;99.90;;;;;;5056081;28;20423;-47
2022/11/22 00:21:50;;;;;;;39.97;21.65;;;3.90;99.90;;;;;;5054123;28;20043;-45
2022/11/22 00:24:16;;;;;;;29.85;19.90;;;4.00;99.90;;;;;;5056172;28;20041;-47
2022/11/22 00:26:42;;;;;;;32.55;18.60;;;3.90;99.90;;;;;;5056787;28;20177;-43
2022/11/22 00:29:07;;;;;;;35.95;20.27;;;3.90;99.90;;;;;;5056745;28;20467;-45
2022/11/22 00:31:33;;;;;;;35.78;20.52;;;3.90;99.90;;;;;;5055856;28;20059;-43
2022/11/22 00:33:59;;;;;;;32.45;19.05;;;3.90;99.90;;;;;;5055682;28;20041;-46
2022/11/22 00:36:24;;;;;;;30.00;20.17;;;3.90;99.90;;;;;;5056571;28;20075;-46
2022/11/22 00:38:51;;;;;;;37.20;19.88;;;4.00;99.90;;;;;;5056669;28;20066;-47
2022/11/22 00:41:17;;;;;;;35.30;20.23;;;3.90;99.90;;;;;;5055955;28;20298;-45
2022/11/22 00:43:42;;;;;;;27.15;16.77;;;3.90;99.90;;;;;;5055451;28;20421;-45
2022/11/22 00:46:08;;;;;;;32.67;19.25;;;4.00;99.90;;;;;;5043271;28;20089;-45
2022/11/22 00:48:34;;;;;;;31.90;19.27;;;3.90;99.90;;;;;;5055253;28;20456;-45
2022/11/22 00:50:59;;;;;;;31.00;18.88;;;4.00;99.90;;;;;;5056098;28;20098;-45
2022/11/22 00:53:25;;;;;;;29.20;18.38;;;4.00;99.90;;;;;;5054817;28;20647;-46
2022/11/22 00:55:50;;;;;;;34.88;18.52;;;3.90;99.90;;;;;;5056619;28;20040;-46
2022/11/22 00:58:16;;;;;;;31.90;17.75;;;4.00;99.90;;;;;;5056604;28;20110;-45
2022/11/22 01:00:42;;;;;;;33.53;18.38;;;4.00;99.90;;;;;;5038259;28;20359;-44
2022/11/22 01:03:12;;;;;;;29.48;18.15;;;4.00;99.90;;;;;;5055882;28;20054;-45
2022/11/22 01:05:38;;;;;;;28.70;18.13;;;4.10;99.90;;;;;;5056037;28;20078;-45
2022/11/22 01:08:04;;;;;;;31.02;18.25;;;4.00;99.90;;;;;;5056287;28;20051;-47
2022/11/22 01:10:30;;;;;;;30.05;18.98;;;4.00;99.90;;;;;;5055888;28;20502;-45
2022/11/22 01:12:57;;;;;;;30.27;18.50;;;4.00;99.90;;;;;;5055401;28;20036;-46
2022/11/22 01:15:23;;;;;;;29.63;18.75;;;4.00;99.90;;;;;;5056098;28;20052;-48
2022/11/22 01:17:49;;;;;;;31.95;18.30;;;4.10;99.90;;;;;;5056263;28;20159;-44
2022/11/22 01:20:15;;;;;;;34.85;19.13;;;4.00;99.90;;;;;;5055983;28;20055;-47
2022/11/22 01:22:40;;;;;;;30.33;17.95;;;4.00;99.90;;;;;;5053388;28;20509;-44
2022/11/22 01:25:07;;;;;;;25.38;17.58;;;4.00;99.90;;;;;;5055250;28;20226;-45
2022/11/22 01:27:33;;;;;;;29.67;19.05;;;4.00;99.90;;;;;;5055863;28;20055;-45
2022/11/22 01:29:58;;;;;;;29.33;17.27;;;4.00;99.90;;;;;;5054365;28;20056;-47
2022/11/22 01:32:24;;;;;;;30.80;18.15;;;4.00;99.90;;;;;;5054430;28;20056;-48
2022/11/22 01:34:50;;;;;;;31.85;19.63;;;4.00;99.90;;;;;;5055824;28;20395;-48
2022/11/22 01:37:15;;;;;;;28.10;17.42;;;4.00;99.90;;;;;;5055766;28;20053;-43
2022/11/22 01:39:41;;;;;;;28.02;17.27;;;4.00;99.90;;;;;;5055371;28;20048;-44
2022/11/22 01:42:09;;;;;;;29.38;18.42;;;4.00;99.90;;;;;;5053854;28;20560;-48
2022/11/22 01:44:35;;;;;;;32.13;18.88;;;4.00;99.90;;;;;;5052232;28;20506;-46
2022/11/22 01:47:10;;;;;;;33.30;18.75;;;4.10;99.90;;;;;;5044752;28;20127;-43
2022/11/22 01:49:45;;;;;;;30.52;19.02;;;4.00;99.90;;;;;;5053545;28;20071;-43
2022/11/22 01:52:17;;;;;;;30.40;18.25;;;4.00;99.90;;;;;;5054195;28;20052;-44
2022/11/22 01:54:49;;;;;;;30.17;18.55;;;4.00;99.90;;;;;;5053914;28;20441;-45
2022/11/22 01:57:19;;;;;;;29.73;18.17;;;4.00;99.90;;;;;;5054157;28;20399;-47
2022/11/22 01:59:55;;;;;;;29.50;17.92;;;4.00;99.90;;;;;;5055784;28;20045;-47
2022/11/22 02:02:21;;;;;;;30.60;18.58;;;4.00;99.90;;;;;;5054976;28;20482;-44
2022/11/22 02:04:50;;;;;;;33.38;18.73;;;4.00;99.90;;;;;;5055594;28;20124;-45
2022/11/22 02:07:24;;;;;;;32.28;18.90;;;4.10;99.90;;;;;;5055247;28;20052;-47
2022/11/22 02:09:51;;;;;;;37.65;20.38;;;4.00;99.90;;;;;;5054006;28;20061;-48
2022/11/22 02:12:21;;;;;;;33.35;19.67;;;4.00;99.90;;;;;;5054142;28;20478;-44
2022/11/22 02:14:47;;;;;;;30.25;17.95;;;4.00;99.90;;;;;;5054872;28;20406;-47
2022/11/22 02:17:13;;;;;;;33.35;20.23;;;4.00;99.90;;;;;;5055066;28;20057;-44
2022/11/22 02:19:43;;;;;;;29.77;19.55;;;4.10;99.90;;;;;;5053397;28;20051;-44
2022/11/22 02:22:18;;;;;;;33.53;19.52;;;4.00;99.90;;;;;;5052395;28;20479;-45
2022/11/22 02:25:00;;;;;;;31.08;20.48;;;4.10;99.90;;;;;;5054766;28;20420;-48
2022/11/22 02:27:26;;;;;;;32.58;20.05;;;4.10;99.90;;;;;;5044053;28;20056;-45
2022/11/22 02:29:52;;;;;;;28.58;19.52;;;4.10;99.90;;;;;;5055128;28;20048;-44
2022/11/22 02:32:18;;;;;;;37.72;22.27;;;4.10;99.90;;;;;;5054675;28;20056;-43
2022/11/22 02:34:46;;;;;;;29.88;19.92;;;4.10;99.90;;;;;;5054825;28;20149;-46
2022/11/22 02:37:15;;;;;;;27.33;19.17;;;4.00;99.90;;;;;;5054679;28;20048;-44
2022/11/22 02:39:43;;;;;;;32.28;20.60;;;4.10;99.90;;;;;;5054190;28;20056;-47
2022/11/22 02:42:09;;;;;;;36.55;21.23;;;4.10;99.90;;;;;;5053185;28;20462;-44
2022/11/22 02:44:34;;;;;;;36.72;21.15;;;4.10;99.90;;;;;;5050480;28;20065;-44
2022/11/22 02:47:00;;;;;;;36.80;21.55;;;4.00;99.90;;;;;;5043411;28;20052;-46
2022/11/22 02:49:26;;;;;;;31.80;20.23;;;4.10;99.90;;;;;;5054340;28;20293;-48
2022/11/22 02:51:52;;;;;;;35.30;21.88;;;4.00;99.90;;;;;;5053925;28;20879;-46
2022/11/22 02:54:18;;;;;;;34.17;20.88;;;4.10;99.90;;;;;;5053510;28;20052;-46
2022/11/22 02:56:44;;;;;;;38.80;22.38;;;4.10;99.90;;;;;;5054441;28;20059;-44
2022/11/22 02:59:10;;;;;;;37.17;21.50;;;4.00;99.90;;;;;;5054271;28;20052;-45
2022/11/22 03:01:36;;;;;;;37.33;23.45;;;4.10;99.90;;;;;;5048684;28;20462;-47
2022/11/22 03:04:01;;;;;;;37.90;22.77;;;4.10;99.90;;;;;;5051986;28;20080;-44
2022/11/22 03:06:27;;;;;;;32.50;20.08;;;4.10;99.90;;;;;;5052476;28;20052;-44
2022/11/22 03:08:53;;;;;;;40.92;21.77;;;4.10;99.90;;;;;;5052316;28;20384;-45
2022/11/22 03:11:18;;;;;;;35.80;22.50;;;4.10;99.90;;;;;;5054410;28;20052;-45
2022/11/22 03:13:44;;;;;;;41.55;22.10;;;4.10;99.90;;;;;;5054177;28;20137;-44
2022/11/22 03:16:10;;;;;;;33.03;21.63;;;4.10;99.90;;;;;;5054482;28;20475;-44
2022/11/22 03:18:36;;;;;;;37.30;22.52;;;4.20;99.90;;;;;;5054193;28;20838;-47
2022/11/22 03:21:03;;;;;;;32.40;21.02;;;4.10;99.90;;;;;;5053647;28;20047;-44
2022/11/22 03:23:29;;;;;;;36.20;22.23;;;4.10;99.90;;;;;;5052723;28;20044;-47
2022/11/22 03:25:55;;;;;;;32.92;21.08;;;4.20;99.90;;;;;;5054376;28;20630;-47
2022/11/22 03:28:20;;;;;;;33.65;20.95;;;4.10;99.90;;;;;;5054319;28;20459;-49
2022/11/22 03:30:46;;;;;;;39.75;22.90;;;4.20;99.90;;;;;;5053999;28;20509;-44
2022/11/22 03:33:12;;;;;;;40.08;22.08;;;4.10;99.90;;;;;;5052397;28;20597;-46
2022/11/22 03:35:38;;;;;;;37.13;23.67;;;4.10;99.90;;;;;;5053220;28;20083;-46
2022/11/22 03:38:03;;;;;;;34.95;22.25;;;4.10;99.90;;;;;;5053322;28;20126;-48
2022/11/22 03:40:29;;;;;;;39.55;22.42;;;4.20;99.90;;;;;;5052726;28;20131;-46
2022/11/22 03:42:59;;;;;;;34.78;21.60;;;4.10;99.90;;;;;;5052958;28;20059;-46
2022/11/22 03:45:24;;;;;;;35.17;22.30;;;4.20;99.90;;;;;;5045082;28;20128;-47
2022/11/22 03:47:50;;;;;;;39.80;23.38;;;4.30;99.90;;;;;;5050502;28;20059;-44
2022/11/22 03:50:16;;;;;;;38.15;21.95;;;4.30;99.90;;;;;;5057753;28;20096;-48
2022/11/22 03:52:41;;;;;;;32.40;22.23;;;4.30;99.90;;;;;;5056229;28;20310;-43
2022/11/22 03:55:07;;;;;;;37.47;21.85;;;4.40;99.90;;;;;;5057391;28;20052;-48
2022/11/22 03:57:33;;;;;;;35.05;22.13;;;4.40;99.90;;;;;;5057473;28;20450;-44
2022/11/22 03:59:58;;;;;;;38.20;22.27;;;4.40;99.90;;;;;;5057759;28;20044;-48
2022/11/22 04:02:24;;;;;;;38.38;22.48;;;4.40;99.90;;;;;;5056537;28;20603;-46
2022/11/22 04:04:50;;;;;;;34.38;22.40;;;4.40;99.90;;;;;;5057865;28;20491;-46
2022/11/22 04:07:15;;;;;;;34.72;21.02;;;4.40;99.90;;;;;;5057324;28;20045;-42
2022/11/22 04:09:41;;;;;;;32.10;19.83;;;4.50;99.90;;;;;;5056956;28;20147;-44
2022/11/22 04:12:06;;;;;;;34.00;22.05;;;4.40;99.90;;;;;;5054736;28;20049;-45
2022/11/22 04:17:39;;;;;;;36.95;22.65;;;4.40;99.90;;;;;;5056494;28;20209;-48
2022/11/22 04:22:58;;;;;;;32.10;21.60;;;4.40;99.90;;;;;;5054931;28;20156;-46
2022/11/22 04:25:25;;;;;;;38.13;24.75;;;4.40;99.90;;;;;;5057072;28;20055;-48
2022/11/22 04:27:51;;;;;;;37.45;22.88;;;4.50;99.90;;;;;;5055849;28;20048;-46
2022/11/22 04:30:16;;;;;;;35.38;20.95;;;4.40;99.90;;;;;;5056982;28;20049;-48
2022/11/22 04:32:45;;;;;;;37.67;22.15;;;4.50;99.90;;;;;;5055554;28;20071;-48
2022/11/22 04:35:15;;;;;;;37.30;21.95;;;4.50;99.90;;;;;;5038916;28;20483;-44
2022/11/22 04:37:42;;;;;;;34.90;23.17;;;4.40;99.90;;;;;;5056273;28;20526;-45
2022/11/22 04:40:08;;;;;;;32.70;20.50;;;4.50;99.90;;;;;;5056304;28;20198;-47
2022/11/22 04:45:19;;;;;;;38.88;22.85;;;4.40;99.90;;;;;;5047088;28;20061;-44
2022/11/22 04:47:59;;;;;;;38.33;24.38;;;4.50;99.90;;;;;;5052064;28;20126;-49
2022/11/22 04:53:13;;;;;;;41.42;24.45;;;4.60;99.90;;;;;;5055631;28;20087;-45
2022/11/22 04:55:39;;;;;;;39.90;24.65;;;4.60;99.90;;;;;;5056465;28;20083;-49
2022/11/22 04:58:04;;;;;;;46.00;25.10;;;4.70;99.90;;;;;;5056478;28;20127;-47
2022/11/22 05:00:30;;;;;;;36.85;23.13;;;4.60;99.90;;;;;;5055148;28;20475;-46
2022/11/22 05:02:57;;;;;;;38.55;23.13;;;4.70;99.90;;;;;;5042609;28;20071;-43
2022/11/22 05:05:24;;;;;;;40.85;24.00;;;4.60;99.90;;;;;;5055774;28;20423;-46
2022/11/22 05:07:49;;;;;;;39.95;24.83;;;4.70;99.90;;;;;;5055013;28;20663;-44
2022/11/22 05:10:15;;;;;;;41.53;23.38;;;4.80;99.90;;;;;;5056357;28;20052;-46
2022/11/22 05:12:41;;;;;;;35.38;22.92;;;4.70;99.90;;;;;;5054805;28;20040;-44
2022/11/22 05:15:08;;;;;;;37.17;24.27;;;4.80;99.90;;;;;;5055626;28;20135;-44
2022/11/22 05:17:34;;;;;;;40.33;24.40;;;4.80;99.90;;;;;;5055997;28;20063;-44
2022/11/22 05:19:59;;;;;;;41.83;24.33;;;4.90;99.90;;;;;;5055405;28;20450;-47
2022/11/22 05:25:12;;;;;;;37.85;23.35;;;4.90;99.90;;;;;;5055807;28;20056;-45
2022/11/22 05:27:38;;;;;;;36.33;22.88;;;5.00;99.90;;;;;;5055326;28;20048;-44
2022/11/22 05:30:05;;;;;;;37.65;22.70;;;4.90;99.90;;;;;;5054134;28;20581;-44
2022/11/22 05:32:31;;;;;;;38.33;22.27;;;5.10;99.90;;;;;;5054140;28;20051;-45
2022/11/22 05:34:57;;;;;;;35.05;21.20;;;5.00;99.90;;;;;;5055013;28;20048;-44
2022/11/22 05:37:23;;;;;;;36.83;21.90;;;5.10;99.90;;;;;;5055703;28;20517;-47
2022/11/22 05:39:49;;;;;;;34.85;21.50;;;5.10;99.90;;;;;;5053893;28;20075;-43
2022/11/22 05:42:14;;;;;;;34.97;20.40;;;5.20;99.90;;;;;;5047917;28;20884;-47
2022/11/22 05:44:40;;;;;;;34.90;21.50;;;5.10;99.90;;;;;;5051731;28;20133;-47
2022/11/22 05:47:06;;;;;;;34.95;21.50;;;5.10;99.90;;;;;;5043692;28;20403;-44
2022/11/22 05:49:32;;;;;;;36.42;20.77;;;5.10;99.90;;;;;;5055599;28;20434;-44
2022/11/22 05:51:58;;;;;;;37.15;20.80;;;5.10;99.90;;;;;;5053484;28;20144;-47
2022/11/22 05:54:23;;;;;;;35.70;19.52;;;5.10;99.90;;;;;;5055617;28;20055;-47
2022/11/22 05:56:49;;;;;;;32.60;19.42;;;5.00;99.90;;;;;;5055109;28;20049;-46
2022/11/22 05:59:15;;;;;;;32.08;17.77;;;5.00;99.90;;;;;;5055240;28;20462;-43
2022/11/22 06:01:40;;;;;;;30.58;18.80;;;4.90;99.90;;;;;;5052928;28;20052;-50
2022/11/22 06:04:06;;;;;;;36.90;17.95;;;4.90;99.90;;;;;;5055295;28;20068;-42
2022/11/22 06:06:32;;;;;;;39.92;18.00;;;4.80;99.90;;;;;;5055872;28;20049;-42
2022/11/22 06:08:58;;;;;;;28.90;18.15;;;4.70;99.90;;;;;;5055746;28;20052;-46
2022/11/22 06:11:27;;;;;;;32.08;17.45;;;4.70;99.90;;;;;;5054054;28;20414;-46
2022/11/22 06:13:57;;;;;;;29.50;16.70;;;4.70;99.90;;;;;;5054238;28;20553;-43
2022/11/22 06:16:23;;;;;;;33.38;16.98;;;4.50;99.90;;;;;;5056087;28;20056;-47
2022/11/22 06:18:49;;;;;;;31.92;16.45;;;4.40;99.90;;;;;;5055895;28;20044;-46
2022/11/22 06:21:18;;;;;;;31.60;17.95;;;4.50;99.90;;;;;;5053364;28;20540;-45
2022/11/22 06:23:44;;;;;;;33.03;17.63;;;4.40;99.90;;;;;;5055428;28;20418;-44
2022/11/22 06:26:15;;;;;;;30.00;16.08;;;4.30;99.90;;;;;;5055863;28;20099;-45
2022/11/22 06:28:41;;;;;;;34.33;17.48;;;4.20;99.90;;;;;;5054498;28;20083;-47
2022/11/22 06:31:13;;;;;;;31.13;17.63;;;4.20;99.90;;;;;;5053613;28;20155;-43
2022/11/22 06:33:40;;;;;;;31.98;16.98;;;4.10;99.90;;;;;;5054748;28;20044;-44
2022/11/22 06:36:11;;;;;;;34.33;17.50;;;4.00;99.90;;;;;;5053589;28;20076;-47
2022/11/22 06:38:38;;;;;;;37.58;18.15;;;3.90;99.90;;;;;;5054486;28;20056;-47
2022/11/22 06:41:06;;;;;;;40.03;18.38;;;3.90;99.90;;;;;;5053358;28;20502;-47
2022/11/22 06:43:32;;;;;;;41.90;18.75;;;4.00;99.90;;;;;;5053777;28;20067;-47
2022/11/22 06:45:59;;;;;;;33.80;18.38;;;4.00;99.90;;;;;;5041149;28;20143;-44
2022/11/22 06:48:30;;;;;;;37.28;17.60;;;4.00;99.90;;;;;;5055188;28;20099;-46
2022/11/22 06:51:03;;;;;;;34.88;17.75;;;3.80;99.90;;;;;;5054033;28;20410;-45
2022/11/22 06:53:34;;;;;;;36.83;16.33;;;3.90;99.90;;;;;;5054341;28;20620;-47
2022/11/22 06:56:08;;;;;;;32.40;16.05;;;3.70;99.90;;;;;;5054119;28;20366;-47
2022/11/22 06:58:34;;;;;;;42.72;17.15;;;3.90;99.90;;;;;;5053876;28;20040;-48
2022/11/22 07:01:05;;;;;;;44.00;17.15;;;3.80;99.90;;;;;;5053292;28;20465;-45
2022/11/22 07:03:33;;;;;;;38.58;17.40;;;3.80;99.90;;;;;;5054258;28;20566;-44
2022/11/22 07:05:58;;;;;;;34.28;16.17;;;3.80;99.90;;;;;;5054249;28;20051;-45
2022/11/22 07:08:24;;;;;;;37.17;16.10;;;3.80;99.90;;;;;;5053494;28;20053;-44
2022/11/22 07:10:50;;;;;;;32.00;15.98;;;4.00;99.90;;;;;;5054876;28;20090;-44
2022/11/22 07:13:15;;;;;;;39.50;15.98;;;4.00;99.90;;;;;;5049890;28;20045;-47
2022/11/22 07:15:41;;;;;;;36.17;14.55;;;3.90;99.90;;;;;;5039049;28;20106;-44
2022/11/22 07:18:07;;;;;;;39.08;14.73;;;3.90;99.90;;;;;;5038330;28;20547;-45
2022/11/22 07:20:32;;;;;;;28.48;12.93;;;3.90;99.90;;;;;;5037367;28;20091;-44
2022/11/22 07:22:58;;;;;;;34.97;14.68;;;4.00;99.90;;;;;;5066843;28;20041;-44
2022/11/22 07:25:24;;;;;;;29.08;13.07;;;4.00;99.90;;;;;;5046188;28;20048;-47
2022/11/22 07:27:52;;;;;;;32.38;12.93;;;3.90;99.90;;;;;;5052118;28;20596;-43
2022/11/22 07:30:18;;;;;;;34.80;13.20;;;4.00;99.90;;;;;;5055036;28;20048;-45
2022/11/22 07:32:47;;;;;;;24.17;12.18;;;3.80;99.90;;;;;;5048282;28;20477;-46
2022/11/22 07:35:13;;;;;;;30.05;13.07;;;3.80;99.90;;;;;;5057311;28;20621;-45
2022/11/22 07:37:39;;;;;;;30.25;12.88;;;3.80;99.90;;;;;;5056798;28;20052;-46
2022/11/22 07:40:05;;;;;;;27.20;11.40;;;3.90;99.90;;;;;;5055121;28;20056;-45
2022/11/22 07:42:31;;;;;;;29.23;11.25;;;3.80;99.90;;;;;;5056685;28;20056;-45
2022/11/22 07:44:56;;;;;;;25.65;10.27;;;3.90;99.90;;;;;;5052690;28;20045;-44
2022/11/22 07:47:22;;;;;;;27.20;10.65;;;3.80;99.90;;;;;;5047316;28;20554;-45
2022/11/22 07:49:48;;;;;;;30.60;10.63;;;3.90;99.90;;;;;;5039081;28;20522;-46
2022/11/22 07:52:14;;;;;;;25.40;11.60;;;3.90;99.90;;;;;;5068094;28;20658;-46
2022/11/22 07:54:39;;;;;;;34.55;10.80;;;4.00;99.90;;;;;;5041123;28;20080;-44
2022/11/22 07:57:05;;;;;;;27.17;11.07;;;4.00;99.90;;;;;;5040115;28;20147;-44
2022/11/22 07:59:31;;;;;;;25.15;9.23;;;4.00;99.90;;;;;;5056495;28;20904;-44
2022/11/22 08:01:56;;;;;;;24.85;9.63;;;4.20;99.90;;;;;;5055171;28;20125;-45
2022/11/22 08:04:22;;;;;;;27.52;9.23;;;4.30;99.90;;;;;;5057722;28;20132;-47
2022/11/22 08:06:47;;;;;;;25.88;10.15;;;4.20;99.90;;;;;;5057193;28;20088;-45
2022/11/22 08:09:13;;;;;;;30.75;9.80;;;4.30;99.90;;;;;;5044662;28;20566;-47
2022/11/22 08:11:39;;;;;;;19.65;8.23;;;4.40;99.90;;;;;;5035479;28;20102;-46
2022/11/22 08:14:04;;;;;;;21.92;8.35;;;4.40;99.90;;;;;;5040402;28;20525;-45
2022/11/22 08:16:30;;;;;;;18.70;7.47;;;4.50;99.90;;;;;;5037735;28;20045;-43
2022/11/22 08:18:57;;;;;;;20.83;8.50;;;4.50;99.90;;;;;;5041538;28;20632;-47
2022/11/22 08:21:22;;;;;;;20.70;7.70;;;4.50;99.90;;;;;;5035802;28;20184;-47
2022/11/22 08:23:48;;;;;;;24.73;8.57;;;4.50;99.90;;;;;;5041031;28;20044;-43
2022/11/22 08:26:16;;;;;;;20.30;8.05;;;4.70;99.90;;;;;;5035483;28;20068;-45
2022/11/22 08:28:43;;;;;;;32.22;8.48;;;4.60;99.90;;;;;;5039672;28;20401;-43
2022/11/22 08:31:12;;;;;;;21.35;7.18;;;4.60;99.90;;;;;;5035354;28;20058;-44
2022/11/22 08:33:38;;;;;;;17.65;7.88;;;4.70;99.90;;;;;;5055890;28;20052;-45
2022/11/22 08:36:05;;;;;;;16.35;7.35;;;4.70;99.90;;;;;;5054881;28;20086;-46
2022/11/22 08:38:31;;;;;;;17.65;7.20;;;4.70;99.90;;;;;;5056435;28;20048;-47
2022/11/22 08:40:57;;;;;;;17.92;7.07;;;4.80;99.90;;;;;;5055292;28;20040;-47
2022/11/22 08:43:23;;;;;;;15.02;7.35;;;4.80;99.90;;;;;;5057063;28;20122;-47
2022/11/22 08:45:57;;;;;;;14.98;6.95;;;4.80;99.90;;;;;;5042456;28;20061;-45
2022/11/22 08:48:24;;;;;;;15.50;7.72;;;4.70;99.90;;;;;;5044374;28;20154;-46
2022/11/22 08:50:52;;;;;;;18.70;6.47;;;4.70;99.90;;;;;;5056666;28;20056;-48
2022/11/22 08:53:18;;;;;;;19.15;6.97;;;4.80;99.90;;;;;;5056801;28;20570;-44
2022/11/22 08:55:44;;;;;;;23.30;6.60;;;4.80;99.90;;;;;;5056244;28;20059;-46
2022/11/22 08:58:10;;;;;;;16.23;5.75;;;4.90;99.90;;;;;;5054053;28;20064;-45
2022/11/22 09:00:35;;;;;;;18.15;5.93;;;4.80;99.90;;;;;;5054670;28;20460;-43
2022/11/22 09:03:01;;;;;;;14.60;6.75;;;4.80;99.90;;;;;;5054419;28;20182;-44
2022/11/22 09:05:27;;;;;;;22.20;6.30;;;4.80;99.90;;;;;;5055328;28;20045;-48
2022/11/22 09:07:53;;;;;;;12.52;6.47;;;4.90;99.90;;;;;;5056667;28;20049;-44
2022/11/22 09:10:18;;;;;;;19.00;7.30;;;4.90;99.90;;;;;;5055580;28;20207;-46
2022/11/22 09:12:45;;;;;;;13.63;5.88;;;4.90;99.90;;;;;;5038244;28;20049;-43
2022/11/22 09:15:11;;;;;;;13.13;5.75;;;4.90;99.90;;;;;;5045076;28;20447;-45
2022/11/22 09:17:36;;;;;;;12.60;5.95;;;4.90;99.90;;;;;;5052101;28;20049;-47
2022/11/22 09:20:03;;;;;;;16.17;6.57;;;4.90;99.90;;;;;;5055002;28;20045;-44
2022/11/22 09:22:30;;;;;;;14.88;5.80;;;4.90;99.90;;;;;;5052458;28;20091;-48
2022/11/22 09:24:56;;;;;;;16.75;6.80;;;5.00;99.90;;;;;;5053957;28;20044;-45
2022/11/22 09:27:22;;;;;;;18.23;6.25;;;5.00;99.90;;;;;;5055651;28;20056;-45
2022/11/22 09:29:48;;;;;;;16.63;6.28;;;5.00;99.90;;;;;;5055096;28;20080;-44
2022/11/22 09:32:13;;;;;;;18.65;7.00;;;5.00;99.90;;;;;;5045596;28;20947;-47
2022/11/22 09:34:39;;;;;;;20.45;7.97;;;5.00;99.90;;;;;;5038807;28;20045;-44
2022/11/22 09:37:04;;;;;;;14.85;5.63;;;5.00;99.90;;;;;;5053260;28;20097;-43
2022/11/22 09:39:30;;;;;;;13.70;6.63;;;5.10;99.90;;;;;;5050762;28;20439;-44
2022/11/22 09:42:10;;;;;;;11.93;5.95;;;5.10;99.90;;;;;;5054059;28;20060;-45
2022/11/22 09:45:13;;;;;;;11.15;5.70;;;5.10;99.90;;;;;;5037133;28;20045;-48
2022/11/22 09:48:09;;;;;;;12.18;4.82;;;5.20;99.90;;;;;;5035684;28;20056;-48
2022/11/22 09:50:43;;;;;;;14.88;5.63;;;5.30;99.90;;;;;;5037621;28;20470;-43
2022/11/22 09:53:24;;;;;;;11.63;5.68;;;5.30;99.90;;;;;;5041186;28;20048;-46
2022/11/22 09:55:58;;;;;;;16.33;5.20;;;5.30;99.90;;;;;;5037608;28;20521;-45
2022/11/22 09:58:56;;;;;;;15.05;5.03;;;5.40;99.90;;;;;;5041870;28;20056;-48
2022/11/22 10:01:38;;;;;;;13.57;6.05;;;5.40;99.90;;;;;;5044286;28;20056;-49
2022/11/22 10:04:03;;;;;;;13.38;5.35;;;5.50;99.90;;;;;;5038225;28;20060;-47
2022/11/22 10:06:36;;;;;;;17.17;5.43;;;5.50;99.90;;;;;;5044273;28;20090;-47
2022/11/22 10:09:19;;;;;;;12.00;4.55;;;5.50;99.90;;;;;;5049035;28;20118;-46
2022/11/22 10:11:45;;;;;;;23.35;6.68;;;5.50;99.90;;;;;;5050242;28;20504;-43
2022/11/22 10:14:46;;;;;;;13.63;4.82;;;5.50;99.90;;;;;;5033404;28;20056;-47
2022/11/22 10:17:59;;;;;;;17.42;5.93;;;5.50;99.90;;;;;;5031575;28;20096;-45
2022/11/22 10:20:31;;;;;;;21.67;6.88;;;5.50;99.90;;;;;;4950166;28;20454;-51
2022/11/22 10:22:58;;;;;;;15.38;6.43;;;5.60;99.90;;;;;;4956543;28;20047;-47
2022/11/22 10:25:39;;;;;;;21.02;7.13;;;5.50;99.90;;;;;;4972515;28;20073;-46
2022/11/22 10:28:35;;;;;;;16.75;7.22;;;5.50;99.90;;;;;;4971915;28;20129;-47
2022/11/22 10:31:30;;;;;;;12.68;5.95;;;5.50;99.90;;;;;;4956828;28;20444;-46
2022/11/22 10:34:08;;;;;;;14.15;5.88;;;5.50;99.90;;;;;;4971157;28;20072;-48
2022/11/22 10:37:08;;;;;;;12.52;5.32;;;5.50;99.90;;;;;;4952763;28;20501;-47
2022/11/22 10:39:39;;;;;;;10.68;5.32;;;5.50;99.90;;;;;;4893710;29;20539;-48
2022/11/22 10:42:26;;;;;;;14.93;5.55;;;5.50;99.90;;;;;;4869088;29;20056;-49
2022/11/22 10:45:16;;;;;;;12.35;4.65;;;5.50;99.90;;;;;;4894317;29;20514;-46
2022/11/22 10:48:08;;;;;;;10.32;4.53;;;5.60;99.90;;;;;;4884609;29;20056;-49
2022/11/22 10:50:55;;;;;;;11.15;4.97;;;5.60;99.90;;;;;;4887505;29;20931;-46
2022/11/22 10:53:40;;;;;;;12.82;4.22;;;5.60;99.90;;;;;;4887935;28;20051;-49
2022/11/22 10:56:48;;;;;;;8.73;4.05;;;5.60;99.90;;;;;;4978795;28;20567;-48
2022/11/22 10:59:35;;;;;;;13.98;4.95;;;5.70;99.90;;;;;;4979757;28;20104;-45
2022/11/22 11:02:31;;;;;;;10.15;3.88;;;5.70;99.90;;;;;;4974335;28;20628;-47
2022/11/22 11:05:01;;;;;;;13.63;3.50;;;5.80;99.90;;;;;;4978003;28;20038;-48
2022/11/22 11:07:27;;;;;;;5.88;2.90;;;5.90;99.90;;;;;;4979332;28;20074;-45
2022/11/22 11:09:57;;;;;;;8.98;3.10;;;6.00;99.90;;;;;;4973711;28;20100;-46
2022/11/22 11:12:50;;;;;;;6.15;2.97;;;6.10;99.90;;;;;;4985718;28;20060;-45
2022/11/22 11:15:30;;;;;;;9.57;3.22;;;6.20;99.90;;;;;;4977026;28;20050;-50
2022/11/22 11:18:03;;;;;;;8.40;3.20;;;6.30;99.90;;;;;;5045242;28;20487;-45
2022/11/22 11:20:37;;;;;;;7.67;3.03;;;6.30;99.90;;;;;;5051822;28;20044;-48
2022/11/22 11:23:03;;;;;;;8.65;3.08;;;6.30;99.90;;;;;;5050473;28;20302;-46
2022/11/22 11:25:32;;;;;;;13.52;3.88;;;6.40;99.90;;;;;;5052942;28;20466;-50
2022/11/22 11:28:05;;;;;;;11.82;4.45;;;6.40;99.90;;;;;;5054019;28;20120;-46
2022/11/22 11:30:41;;;;;;;10.07;3.80;;;6.40;99.90;;;;;;5052643;28;20096;-43
2022/11/22 11:33:24;;;;;;;13.65;4.03;;;6.40;99.90;;;;;;5053303;28;20055;-46
2022/11/22 11:35:54;;;;;;;8.77;3.72;;;6.40;99.90;;;;;;5036040;28;20135;-43
2022/11/22 11:38:39;;;;;;;11.48;3.40;;;6.40;99.90;;;;;;5054482;28;20135;-45
2022/11/22 11:41:20;;;;;;;11.40;3.13;;;6.30;99.90;;;;;;5055232;28;20142;-47
2022/11/22 11:43:47;;;;;;;7.90;2.95;;;6.30;99.90;;;;;;5052248;28;20040;-47
2022/11/22 11:46:24;;;;;;;12.00;2.80;;;6.30;99.90;;;;;;5050590;28;20099;-44
2022/11/22 11:48:55;;;;;;;6.68;2.67;;;6.30;99.90;;;;;;5053238;28;20060;-43
2022/11/22 11:51:29;;;;;;;9.50;2.95;;;6.30;99.90;;;;;;5050227;28;20117;-47
2022/11/22 11:54:39;;;;;;;6.82;2.75;;;6.30;99.90;;;;;;5052998;28;20446;-48
2022/11/22 11:57:35;;;;;;;10.40;2.95;;;6.40;99.90;;;;;;5050584;28;20071;-46
2022/11/22 12:00:04;;;;;;;9.63;2.72;;;6.40;99.90;;;;;;5047860;28;20048;-46
2022/11/22 12:02:40;;;;;;;8.38;2.72;;;6.40;99.90;;;;;;5050313;28;20052;-47
2022/11/22 12:05:25;;;;;;;8.48;2.47;;;6.40;99.90;;;;;;5062382;28;20457;-44
2022/11/22 12:07:50;;;;;;;8.90;3.15;;;6.50;99.90;;;;;;5071694;28;20433;-46
2022/11/22 12:10:26;;;;;;;9.63;3.28;;;6.40;99.90;;;;;;5053884;28;20048;-44
2022/11/22 12:13:02;;;;;;;11.65;3.17;;;6.40;99.90;;;;;;5043035;28;20058;-43
2022/11/22 12:15:50;;;;;;;6.80;2.67;;;6.40;99.90;;;;;;5057076;28;20671;-42
2022/11/22 12:18:42;;;;;;;6.63;3.30;;;6.40;99.90;;;;;;5056366;28;20052;-48
2022/11/22 12:21:31;;;;;;;13.48;3.20;;;6.40;99.90;;;;;;5068067;28;20536;-48
2022/11/22 12:24:01;;;;;;;9.38;3.15;;;6.40;99.90;;;;;;5061415;28;20503;-48
2022/11/22 12:26:29;;;;;;;10.80;3.22;;;6.40;99.90;;;;;;5061414;28;20147;-44
2022/11/22 12:28:56;;;;;;;11.70;3.50;;;6.40;99.90;;;;;;5067828;28;20610;-45
2022/11/22 12:31:22;;;;;;;10.15;3.28;;;6.40;99.90;;;;;;5050252;28;20040;-43
2022/11/22 12:34:01;;;;;;;10.52;3.08;;;6.30;99.90;;;;;;5054006;28;20364;-46
2022/11/22 12:36:34;;;;;;;12.63;4.40;;;6.30;99.90;;;;;;5055621;28;20047;-46
2022/11/22 12:39:03;;;;;;;13.68;3.35;;;6.40;99.90;;;;;;5056522;28;20056;-49
2022/11/22 12:41:31;;;;;;;10.70;4.00;;;6.30;99.90;;;;;;5054570;28;20807;-46
2022/11/22 12:44:03;;;;;;;12.10;3.50;;;6.40;99.90;;;;;;5056004;28;20055;-45
2022/11/22 12:46:36;;;;;;;12.50;3.15;;;6.40;99.90;;;;;;5052387;28;20074;-45
2022/11/22 12:49:21;;;;;;;;;;;6.40;99.90;;;;;;5056734;28;20370;-49
2022/11/22 12:51:55;;;;;;;8.43;2.85;;;6.40;99.90;;;;;;5067595;28;20015;-46
2022/11/22 12:54:27;;;;;;;9.73;3.38;;;6.50;99.90;;;;;;5052844;28;20363;-47
2022/11/22 12:56:57;;;;;;;9.88;2.92;;;6.50;99.90;;;;;;5055562;28;20402;-45
2022/11/22 12:59:41;;;;;;;6.68;2.55;;;6.60;99.90;;;;;;5055693;28;20064;-43
2022/11/22 13:02:28;;;;;;;9.88;3.42;;;6.60;99.90;;;;;;5053749;28;20049;-49
2022/11/22 13:05:08;;;;;;;7.22;2.92;;;6.70;99.90;;;;;;5056452;28;20143;-47
2022/11/22 13:07:52;;;;;;;7.32;3.25;;;6.70;99.90;;;;;;5055928;28;20056;-46
2022/11/22 13:10:38;;;;;;;8.80;2.78;;;6.70;99.90;;;;;;5053378;28;20048;-45
2022/11/22 13:13:15;;;;;;;8.40;3.00;;;6.70;99.90;;;;;;5055953;28;20051;-47